createdAt,value
2022-10-11T00:01:00.481Z,85.49
2022-10-11T00:03:28.819Z,85.24
2022-10-11T00:05:57.334Z,85.36
2022-10-11T00:08:26.883Z,85.29
2022-10-11T00:10:59.571Z,85.00
2022-10-11T00:13:28.007Z,85.12
2022-10-11T00:15:56.830Z,85.08
2022-10-11T00:18:25.262Z,84.87
2022-10-11T00:21:02.262Z,84.73
2022-10-11T00:23:31.947Z,84.67
2022-10-11T00:26:00.619Z,84.63
2022-10-11T00:28:29.190Z,84.46
2022-10-11T00:30:57.769Z,84.41
2022-10-11T00:33:26.123Z,84.34
2022-10-11T00:35:54.381Z,84.50
2022-10-11T00:38:22.591Z,84.47
2022-10-11T00:40:52.123Z,84.60
2022-10-11T00:43:22.890Z,84.56
2022-10-11T00:46:20.392Z,85.05
2022-10-11T00:48:52.027Z,84.94
2022-10-11T00:51:25.852Z,84.91
2022-10-11T00:53:55.341Z,84.79
2022-10-11T00:56:27.636Z,84.30
2022-10-11T00:58:57.113Z,84.24
2022-10-11T01:01:25.453Z,84.12
2022-10-11T01:03:53.563Z,83.98
2022-10-11T01:06:21.903Z,84.06
2022-10-11T01:08:51.537Z,83.97
2022-10-11T01:11:22.689Z,84.01
2022-10-11T01:14:08.573Z,83.84
2022-10-11T01:16:43.621Z,83.81
2022-10-11T01:19:31.202Z,83.80
2022-10-11T01:22:13.195Z,83.79
2022-10-11T01:25:03.298Z,83.50
2022-10-11T01:27:41.027Z,83.42
2022-10-11T01:30:28.202Z,83.28
2022-10-11T01:33:06.035Z,83.39
2022-10-11T01:35:42.119Z,83.26
2022-10-11T01:38:18.522Z,83.34
2022-10-11T01:40:49.806Z,83.22
2022-10-11T01:43:19.728Z,83.40
2022-10-11T01:45:52.649Z,83.51
2022-10-11T01:48:21.324Z,83.28
2022-10-11T01:50:52.173Z,83.60
2022-10-11T01:53:47.766Z,83.26
2022-10-11T01:56:28.762Z,83.25
2022-10-11T01:59:13.369Z,83.12
2022-10-11T02:01:55.226Z,83.09
2022-10-11T02:04:32.130Z,83.15
2022-10-11T02:07:06.795Z,82.78
2022-10-11T02:09:42.959Z,83.14
2022-10-11T02:12:14.628Z,83.01
2022-10-11T02:14:45.096Z,82.87
2022-10-11T02:17:20.992Z,83.18
2022-10-11T02:19:53.277Z,83.09
2022-10-11T02:22:25.857Z,83.12
2022-10-11T02:24:59.724Z,82.99
2022-10-11T02:27:46.838Z,83.11
2022-10-11T02:30:22.403Z,83.21
2022-10-11T02:32:57.967Z,82.90
2022-10-11T02:35:30.236Z,82.95
2022-10-11T02:38:07.839Z,82.92
2022-10-11T02:40:39.627Z,82.92
2022-10-11T02:43:19.651Z,82.76
2022-10-11T02:45:53.116Z,82.76
2022-10-11T02:48:25.592Z,82.66
2022-10-11T02:51:05.903Z,82.74
2022-10-11T02:53:51.837Z,82.60
2022-10-11T02:56:20.164Z,82.67
2022-10-11T02:58:50.399Z,82.46
2022-10-11T03:01:18.338Z,82.52
2022-10-11T03:03:48.852Z,82.28
2022-10-11T03:06:16.689Z,82.24
2022-10-11T03:08:45.885Z,82.12
2022-10-11T03:11:13.795Z,82.07
2022-10-11T03:13:44.073Z,82.02
2022-10-11T03:16:12.306Z,82.13
2022-10-11T03:18:40.510Z,81.87
2022-10-11T03:21:10.052Z,81.70
2022-10-11T03:23:37.942Z,81.69
2022-10-11T03:26:06.218Z,81.62
2022-10-11T03:28:34.443Z,81.54
2022-10-11T03:31:04.888Z,81.65
2022-10-11T03:33:32.780Z,81.47
2022-10-11T03:36:00.648Z,81.46
2022-10-11T03:38:32.903Z,81.27
2022-10-11T03:41:03.420Z,81.23
2022-10-11T03:43:31.252Z,81.09
2022-10-11T03:45:59.134Z,81.05
2022-10-11T03:48:29.022Z,80.93
2022-10-11T03:50:57.028Z,80.96
2022-10-11T03:53:25.089Z,80.86
2022-10-11T03:55:55.592Z,80.79
2022-10-11T03:58:24.009Z,80.89
2022-10-11T04:00:53.182Z,80.82
2022-10-11T04:03:24.019Z,80.68
2022-10-11T04:05:52.025Z,80.60
2022-10-11T04:08:19.953Z,80.60
2022-10-11T04:10:50.496Z,80.35
2022-10-11T04:13:19.796Z,80.55
2022-10-11T04:15:48.306Z,80.47
2022-10-11T04:18:16.176Z,80.57
2022-10-11T04:20:44.033Z,80.45
2022-10-11T04:23:12.072Z,80.59
2022-10-11T04:25:40.163Z,80.58
2022-10-11T04:28:09.480Z,80.49
2022-10-11T04:30:46.559Z,80.47
2022-10-11T04:33:14.532Z,80.57
2022-10-11T04:35:42.370Z,80.38
2022-10-11T04:38:10.232Z,80.27
2022-10-11T04:40:38.282Z,80.22
2022-10-11T04:43:06.258Z,80.08
2022-10-11T04:45:34.544Z,80.10
2022-10-11T04:48:05.147Z,80.14
2022-10-11T04:50:33.024Z,80.14
2022-10-11T04:53:01.018Z,80.08
2022-10-11T04:55:29.266Z,80.22
2022-10-11T04:57:57.170Z,80.26
2022-10-11T05:00:25.010Z,80.09
2022-10-11T05:02:53.988Z,80.19
2022-10-11T05:05:23.289Z,80.24
2022-10-11T05:07:51.155Z,80.21
2022-10-11T05:10:19.094Z,80.28
2022-10-11T05:12:47.019Z,80.24
2022-10-11T05:15:15.225Z,80.21
2022-10-11T05:17:43.189Z,80.31
2022-10-11T05:20:12.667Z,80.23
2022-10-11T05:22:42.056Z,80.05
2022-10-11T05:25:10.114Z,79.78
2022-10-11T05:27:38.020Z,79.67
2022-10-11T05:30:06.740Z,79.56
2022-10-11T05:32:36.784Z,79.48
2022-10-11T05:35:05.104Z,79.46
2022-10-11T05:37:32.937Z,79.29
2022-10-11T05:40:02.288Z,79.31
2022-10-11T05:42:30.237Z,79.13
2022-10-11T05:44:58.024Z,79.13
2022-10-11T05:47:28.358Z,79.14
2022-10-11T05:49:56.266Z,78.75
2022-10-11T05:52:24.183Z,78.83
2022-10-11T05:54:52.249Z,78.71
2022-10-11T05:57:21.644Z,78.63
2022-10-11T05:59:49.519Z,78.63
2022-10-11T06:02:17.439Z,78.56
2022-10-11T06:04:45.195Z,78.67
2022-10-11T06:07:13.201Z,78.46
2022-10-11T06:09:41.238Z,78.52
2022-10-11T07:01:56.153Z,76.22
2022-10-11T07:04:31.280Z,76.02
2022-10-11T07:07:01.189Z,75.75
2022-10-11T07:09:38.427Z,75.80
2022-10-11T07:12:13.892Z,75.68
2022-10-11T07:14:43.308Z,75.54
2022-10-11T07:17:13.558Z,75.23
2022-10-11T07:19:42.812Z,74.90
2022-10-11T07:22:12.673Z,74.67
2022-10-11T07:24:52.266Z,74.50
2022-10-11T07:30:22.447Z,74.04
2022-10-11T07:32:50.314Z,73.65
2022-10-11T07:35:21.260Z,73.12
2022-10-11T07:37:56.650Z,73.16
2022-10-11T07:40:26.817Z,72.95
2022-10-11T07:42:57.083Z,73.14
2022-10-11T07:45:30.684Z,72.85
2022-10-11T07:47:58.756Z,72.62
2022-10-11T07:50:38.795Z,72.75
2022-10-11T07:53:11.927Z,72.55
2022-10-11T07:55:56.154Z,72.48
2022-10-11T07:58:24.156Z,72.66
2022-10-11T08:00:55.269Z,72.55
2022-10-11T08:03:23.805Z,72.42
2022-10-11T08:06:00.837Z,71.99
2022-10-11T08:08:33.753Z,71.87
2022-10-11T08:11:04.911Z,71.30
2022-10-11T08:13:32.701Z,70.96
2022-10-11T08:33:29.224Z,69.86
2022-10-11T08:36:05.693Z,70.02
2022-10-11T08:38:36.247Z,69.96
2022-10-11T08:41:15.809Z,69.86
2022-10-11T08:43:50.075Z,69.93
2022-10-11T08:46:24.162Z,69.78
2022-10-11T08:48:52.417Z,69.54
2022-10-11T08:51:29.161Z,68.99
2022-10-11T08:54:07.167Z,68.62
2022-10-11T08:56:37.812Z,68.22
2022-10-11T08:59:12.022Z,68.10
2022-10-11T09:01:43.375Z,67.89
2022-10-11T09:04:30.746Z,67.67
2022-10-11T09:07:06.233Z,67.32
2022-10-11T09:09:47.263Z,67.03
2022-10-11T09:12:19.890Z,65.94
2022-10-11T09:14:55.129Z,65.52
2022-10-11T09:17:39.014Z,65.17
2022-10-11T09:20:21.124Z,64.19
2022-10-11T09:22:59.284Z,64.21
2022-10-11T09:25:37.027Z,64.00
2022-10-11T09:28:12.788Z,63.58
2022-10-11T09:30:53.336Z,63.77
2022-10-11T09:33:25.927Z,63.73
2022-10-11T09:42:31.715Z,62.08
2022-10-11T09:45:08.952Z,62.01
2022-10-11T09:47:36.824Z,61.11
2022-10-11T09:50:08.066Z,60.72
2022-10-11T09:52:35.902Z,60.08
2022-10-11T09:55:07.215Z,59.55
2022-10-11T09:57:40.392Z,59.02
2022-10-11T10:00:22.025Z,58.79
2022-10-11T10:02:50.419Z,57.75
2022-10-11T10:05:27.198Z,57.60
2022-10-11T10:08:07.214Z,56.90
2022-10-11T10:10:41.028Z,56.38
2022-10-11T10:13:21.408Z,55.66
2022-10-11T10:15:50.916Z,55.64
2022-10-11T10:18:21.857Z,54.88
2022-10-11T10:20:53.220Z,53.91
2022-10-11T10:23:31.392Z,53.34
2022-10-11T10:26:18.856Z,53.60
2022-10-11T10:29:03.807Z,52.71
2022-10-11T10:31:54.904Z,52.30
2022-10-11T10:34:24.635Z,52.49
2022-10-11T10:36:56.044Z,51.34
2022-10-11T10:39:27.104Z,51.89
2022-10-11T10:42:06.265Z,51.77
2022-10-11T10:44:39.531Z,51.89
2022-10-11T10:47:10.750Z,51.07
2022-10-11T10:49:53.773Z,50.99
2022-10-11T10:52:58.689Z,50.50
2022-10-11T10:55:30.019Z,50.29
2022-10-11T10:58:16.409Z,49.98
2022-10-11T11:00:49.095Z,49.67
2022-10-11T11:03:25.525Z,49.99
2022-10-11T11:05:58.828Z,49.71
2022-10-11T11:08:36.042Z,49.29
2022-10-11T11:11:18.216Z,48.99
2022-10-11T11:13:49.608Z,48.45
2022-10-11T11:16:23.713Z,48.42
2022-10-11T11:18:55.847Z,48.10
2022-10-11T11:21:29.088Z,47.99
2022-10-11T11:24:05.682Z,47.65
2022-10-11T11:26:39.667Z,47.59
2022-10-11T11:29:22.395Z,47.22
2022-10-11T11:32:09.838Z,47.16
2022-10-11T11:34:42.857Z,47.07
2022-10-11T11:37:17.385Z,46.36
2022-10-11T11:39:47.417Z,46.04
2022-10-11T11:42:20.646Z,46.37
2022-10-11T11:44:52.329Z,46.10
2022-10-11T11:47:26.338Z,46.34
2022-10-11T11:49:57.816Z,46.42
2022-10-11T11:52:28.670Z,46.14
2022-10-11T11:55:07.827Z,45.65
2022-10-11T11:57:44.050Z,45.83
2022-10-11T12:00:15.998Z,45.51
2022-10-11T12:02:49.052Z,45.38
2022-10-11T12:05:21.032Z,44.89
2022-10-11T12:07:58.331Z,44.23
2022-10-11T12:10:34.961Z,43.72
2022-10-11T12:13:06.152Z,43.35
2022-10-11T12:15:34.022Z,43.20
2022-10-11T12:18:16.262Z,42.65
2022-10-11T12:20:50.603Z,42.87
2022-10-11T12:23:34.332Z,42.68
2022-10-11T12:26:39.003Z,42.71
2022-10-11T12:29:28.814Z,42.81
2022-10-11T12:32:16.848Z,42.12
2022-10-11T12:34:46.160Z,41.65
2022-10-11T12:37:35.611Z,41.72
2022-10-11T12:40:03.446Z,42.35
2022-10-11T12:42:32.514Z,41.72
2022-10-11T12:45:18.842Z,42.12
2022-10-11T12:47:49.482Z,42.56
2022-10-11T12:50:25.707Z,43.14
2022-10-11T12:53:01.080Z,43.41
2022-10-11T12:55:39.541Z,43.39
2022-10-11T12:58:29.120Z,42.80
2022-10-11T13:01:18.149Z,42.31
2022-10-11T13:03:50.954Z,42.45
2022-10-11T13:06:21.740Z,42.23
2022-10-11T13:08:54.610Z,42.66
2022-10-11T13:11:24.687Z,42.98
2022-10-11T13:13:57.648Z,42.69
2022-10-11T13:16:35.580Z,42.58
2022-10-11T13:19:06.861Z,42.09
2022-10-11T13:21:43.463Z,41.52
2022-10-11T13:24:14.813Z,41.53
2022-10-11T13:26:47.828Z,41.54
2022-10-11T13:29:17.461Z,41.25
2022-10-11T13:31:46.908Z,41.02
2022-10-11T13:34:17.601Z,41.19
2022-10-11T13:36:51.673Z,41.51
2022-10-11T13:39:31.093Z,41.34
2022-10-11T13:42:09.060Z,41.70
2022-10-11T13:44:42.490Z,41.25
2022-10-11T13:47:17.451Z,41.63
2022-10-11T13:49:47.133Z,41.37
2022-10-11T13:52:23.648Z,41.71
2022-10-11T13:54:59.155Z,41.90
2022-10-11T13:57:34.472Z,42.29
2022-10-11T14:00:09.240Z,42.19
2022-10-11T14:02:39.581Z,42.28
2022-10-11T14:05:10.277Z,42.08
2022-10-11T14:07:45.514Z,42.12
2022-10-11T14:10:19.871Z,42.45
2022-10-11T14:13:01.574Z,42.57
2022-10-11T14:15:30.990Z,42.99
2022-10-11T14:18:01.726Z,42.39
2022-10-11T14:20:42.946Z,42.70
2022-10-11T14:23:15.765Z,43.07
2022-10-11T14:25:43.542Z,43.21
2022-10-11T14:28:14.073Z,43.38
2022-10-11T14:30:42.613Z,42.96
2022-10-11T14:33:13.313Z,42.41
2022-10-11T14:35:43.405Z,42.37
2022-10-11T14:38:13.099Z,42.04
2022-10-11T14:40:40.974Z,41.95
2022-10-11T14:43:08.749Z,41.81
2022-10-11T14:45:36.578Z,42.12
2022-10-11T14:48:07.302Z,41.75
2022-10-11T14:50:39.206Z,42.17
2022-10-11T14:53:12.034Z,42.61
2022-10-11T14:55:42.237Z,42.67
2022-10-11T14:58:10.821Z,42.55
2022-10-11T15:00:38.770Z,43.26
2022-10-11T15:03:07.274Z,43.17
2022-10-11T15:05:35.496Z,43.45
2022-10-11T15:08:08.725Z,43.79
2022-10-11T15:10:37.667Z,43.91
2022-10-11T15:13:32.266Z,43.46
2022-10-11T15:16:04.885Z,43.95
2022-10-11T15:18:35.759Z,43.97
2022-10-11T15:21:15.222Z,44.37
2022-10-11T15:23:47.387Z,44.53
2022-10-11T15:26:19.859Z,44.76
2022-10-11T15:28:50.346Z,45.07
2022-10-11T15:31:22.196Z,45.28
2022-10-11T15:33:50.414Z,45.55
2022-10-11T15:36:21.294Z,45.69
2022-10-11T15:38:49.525Z,46.20
2022-10-11T15:41:20.861Z,46.35
2022-10-11T15:43:50.384Z,46.86
2022-10-11T15:46:24.900Z,47.20
2022-10-11T15:48:53.411Z,47.63
2022-10-11T15:51:25.749Z,48.06
2022-10-11T15:53:56.222Z,48.27
2022-10-11T15:56:24.336Z,48.72
2022-10-11T15:58:52.117Z,48.97
2022-10-11T16:01:21.665Z,49.12
2022-10-11T16:03:53.588Z,49.32
2022-10-11T16:06:23.463Z,49.45
2022-10-11T16:08:51.318Z,49.78
2022-10-11T16:11:19.178Z,50.00
2022-10-11T16:13:47.677Z,50.10
2022-10-11T16:16:18.432Z,50.31
2022-10-11T16:18:47.613Z,50.41
2022-10-11T16:21:16.418Z,50.66
2022-10-11T16:23:44.238Z,50.99
2022-10-11T16:26:13.955Z,51.10
2022-10-11T16:28:43.097Z,51.59
2022-10-11T16:31:12.111Z,51.95
2022-10-11T16:33:46.065Z,52.64
2022-10-11T16:36:36.510Z,52.94
2022-10-11T16:39:07.577Z,53.79
2022-10-11T16:41:35.445Z,54.06
2022-10-11T16:44:06.928Z,54.58
2022-10-11T16:46:34.967Z,55.15
2022-10-11T16:49:02.797Z,55.71
2022-10-11T16:51:32.440Z,56.53
2022-10-11T16:56:48.559Z,58.21
2022-10-11T16:59:16.327Z,59.04
2022-10-11T17:01:46.692Z,59.49
2022-10-11T17:04:14.909Z,60.00
2022-10-11T17:06:45.012Z,60.68
2022-10-11T17:09:16.174Z,60.63
2022-10-11T17:11:49.964Z,60.92
2022-10-11T17:14:20.998Z,61.18
2022-10-11T17:16:56.086Z,61.73
2022-10-11T17:19:34.933Z,61.81
2022-10-11T17:22:04.140Z,62.36
2022-10-11T17:24:31.927Z,62.60
2022-10-11T17:27:01.353Z,62.73
2022-10-11T17:29:29.098Z,62.82
2022-10-11T17:31:56.968Z,63.04
2022-10-11T17:34:25.096Z,63.12
2022-10-11T17:36:54.989Z,63.51
2022-10-11T17:39:26.867Z,63.53
2022-10-11T17:42:10.111Z,63.48
2022-10-11T17:44:37.932Z,63.55
2022-10-11T17:47:05.977Z,63.24
2022-10-11T17:49:42.203Z,62.87
2022-10-11T17:52:10.076Z,62.70
2022-10-11T17:54:42.068Z,62.37
2022-10-11T17:57:11.543Z,62.34
2022-10-11T17:59:41.949Z,62.13
2022-10-11T18:02:14.695Z,62.07
2022-10-11T18:04:45.502Z,61.87
2022-10-11T18:07:16.020Z,61.83
2022-10-11T18:09:52.462Z,61.79
2022-10-11T18:12:27.557Z,61.64
2022-10-11T18:14:55.387Z,61.36
2022-10-11T18:17:24.144Z,61.25
2022-10-11T18:19:54.786Z,61.11
2022-10-11T18:22:29.213Z,61.16
2022-10-11T18:25:14.548Z,60.78
2022-10-11T18:27:42.460Z,60.47
2022-10-11T18:30:10.940Z,60.58
2022-10-11T18:32:38.921Z,60.66
2022-10-11T18:35:07.099Z,60.62
2022-10-11T18:37:38.264Z,60.90
2022-10-11T18:40:11.764Z,61.06
2022-10-11T20:36:15.026Z,69.47
2022-10-11T20:50:23.289Z,70.41
2022-10-11T20:53:21.359Z,70.34
2022-10-11T20:58:34.207Z,70.62
2022-10-11T21:01:17.616Z,70.50
2022-10-11T21:03:45.932Z,70.71
2022-10-11T21:06:21.105Z,70.83
2022-10-11T21:08:57.197Z,70.70
2022-10-11T21:11:38.465Z,70.77
2022-10-11T21:14:15.490Z,70.65
2022-10-11T22:24:54.406Z,67.77
2022-10-11T22:27:28.447Z,67.59
2022-10-11T22:29:58.011Z,67.65
2022-10-11T22:32:35.097Z,67.51
2022-10-11T22:35:09.314Z,67.43
2022-10-11T22:37:37.448Z,67.41
2022-10-11T22:40:08.928Z,67.56
2022-10-11T22:42:40.438Z,67.71
2022-10-11T22:45:11.015Z,67.71
2022-10-11T22:47:41.827Z,67.97
2022-10-11T22:50:10.022Z,68.08
2022-10-11T22:52:40.820Z,68.17
2022-10-11T22:55:10.545Z,68.27
2022-10-11T22:57:50.528Z,68.81
2022-10-11T23:00:19.829Z,69.02
2022-10-11T23:02:48.132Z,69.83
2022-10-11T23:05:20.996Z,70.66
2022-10-11T23:07:51.361Z,70.91
2022-10-11T23:10:20.945Z,71.24
2022-10-11T23:12:55.087Z,71.43
2022-10-11T23:15:24.955Z,71.66
2022-10-11T23:17:55.870Z,72.04
2022-10-11T23:20:26.952Z,72.12
2022-10-11T23:22:58.036Z,72.54
2022-10-11T23:25:34.422Z,72.85
2022-10-11T23:28:06.910Z,73.17
2022-10-11T23:30:40.843Z,73.08
2022-10-11T23:33:10.201Z,73.11
2022-10-11T23:35:42.987Z,73.31
2022-10-11T23:38:10.956Z,73.24
2022-10-11T23:40:46.603Z,73.34
2022-10-11T23:43:17.032Z,73.66
2022-10-11T23:45:45.818Z,73.93
2022-10-11T23:48:19.918Z,74.55
2022-10-11T23:50:49.628Z,75.41
2022-10-11T23:53:20.432Z,75.91
2022-10-11T23:55:58.098Z,76.71
